sensor_id;sensor_type;location;lat;lon;timestamp;pressure;altitude;pressure_sealevel;temperature;humidity
35878;BME280;21982;49.804;24.072;2023-08-06T00:02:08;96082.53;;;24.76;50.02
35878;BME280;21982;49.804;24.072;2023-08-06T00:04:33;96089.34;;;24.73;50.14
35878;BME280;21982;49.804;24.072;2023-08-06T00:06:58;96056.19;;;24.45;49.89
35878;BME280;21982;49.804;24.072;2023-08-06T00:09:24;96094.19;;;24.62;50.15
35878;BME280;21982;49.804;24.072;2023-08-06T00:11:49;96086.03;;;24.54;50.19
35878;BME280;21982;49.804;24.072;2023-08-06T00:14:15;96092.25;;;24.54;50.09
35878;BME280;21982;49.804;24.072;2023-08-06T00:16:45;96055.94;;;24.33;50.43
35878;BME280;21982;49.804;24.072;2023-08-06T00:19:10;96075.75;;;24.42;50.56
35878;BME280;21982;49.804;24.072;2023-08-06T00:21:36;96066.44;;;24.34;50.33
35878;BME280;21982;49.804;24.072;2023-08-06T00:24:01;96077.47;;;24.38;50.27
35878;BME280;21982;49.804;24.072;2023-08-06T00:26:26;96083.06;;;24.42;50.45
35878;BME280;21982;49.804;24.072;2023-08-06T00:28:53;96043.84;;;24.17;50.49
35878;BME280;21982;49.804;24.072;2023-08-06T00:31:18;96081.28;;;24.37;50.55
35878;BME280;21982;49.804;24.072;2023-08-06T00:33:44;96063.28;;;24.19;50.39
35878;BME280;21982;49.804;24.072;2023-08-06T00:36:09;96073.88;;;24.29;50.83
35878;BME280;21982;49.804;24.072;2023-08-06T00:38:36;95997.06;;;23.80;50.61
35878;BME280;21982;49.804;24.072;2023-08-06T00:41:01;96052.56;;;24.14;50.92
35878;BME280;21982;49.804;24.072;2023-08-06T00:43:27;96068.38;;;24.20;50.73
35878;BME280;21982;49.804;24.072;2023-08-06T00:45:53;96072.97;;;24.20;50.61
35878;BME280;21982;49.804;24.072;2023-08-06T00:48:18;96076.50;;;24.20;50.73
35878;BME280;21982;49.804;24.072;2023-08-06T00:50:44;96020.50;;;23.85;50.58
35878;BME280;21982;49.804;24.072;2023-08-06T00:53:10;96072.97;;;24.20;50.99
35878;BME280;21982;49.804;24.072;2023-08-06T00:55:35;96070.59;;;24.18;50.92
35878;BME280;21982;49.804;24.072;2023-08-06T00:58:01;96070.88;;;24.17;50.95
35878;BME280;21982;49.804;24.072;2023-08-06T01:00:27;96064.97;;;24.15;50.70
35878;BME280;21982;49.804;24.072;2023-08-06T01:02:53;96059.88;;;24.13;51.12
35878;BME280;21982;49.804;24.072;2023-08-06T01:05:20;96054.78;;;24.12;50.92
35878;BME280;21982;49.804;24.072;2023-08-06T01:10:32;96062.09;;;24.11;50.78
35878;BME280;21982;49.804;24.072;2023-08-06T01:13:11;96058.06;;;24.09;51.01
35878;BME280;21982;49.804;24.072;2023-08-06T01:15:46;96053.28;;;24.05;50.95
35878;BME280;21982;49.804;24.072;2023-08-06T01:18:12;96048.59;;;23.97;51.23
35878;BME280;21982;49.804;24.072;2023-08-06T01:20:39;96029.91;;;23.87;51.47
35878;BME280;21982;49.804;24.072;2023-08-06T01:23:05;96024.91;;;23.81;51.35
35878;BME280;21982;49.804;24.072;2023-08-06T01:25:38;96033.47;;;23.96;51.37
35878;BME280;21982;49.804;24.072;2023-08-06T01:29:08;96012.88;;;23.87;51.23
35878;BME280;21982;49.804;24.072;2023-08-06T01:31:27;96018.09;;;23.83;51.28
35878;BME280;21982;49.804;24.072;2023-08-06T01:33:56;96017.38;;;23.78;51.80
35878;BME280;21982;49.804;24.072;2023-08-06T01:36:23;95991.13;;;23.56;52.01
35878;BME280;21982;49.804;24.072;2023-08-06T01:38:52;96010.19;;;23.73;51.69
35878;BME280;21982;49.804;24.072;2023-08-06T01:41:19;96009.91;;;23.61;51.90
35878;BME280;21982;49.804;24.072;2023-08-06T01:43:44;95992.28;;;23.50;52.00
35878;BME280;21982;49.804;24.072;2023-08-06T01:46:10;96018.31;;;23.59;52.30
35878;BME280;21982;49.804;24.072;2023-08-06T01:48:37;95988.19;;;23.38;52.11
35878;BME280;21982;49.804;24.072;2023-08-06T01:51:05;96009.22;;;23.55;52.15
35878;BME280;21982;49.804;24.072;2023-08-06T01:53:33;95978.47;;;23.37;52.64
35878;BME280;21982;49.804;24.072;2023-08-06T01:55:59;95998.88;;;23.44;52.92
35878;BME280;21982;49.804;24.072;2023-08-06T01:58:24;95975.97;;;23.27;52.50
35878;BME280;21982;49.804;24.072;2023-08-06T02:00:50;96002.78;;;23.37;53.07
35878;BME280;21982;49.804;24.072;2023-08-06T02:03:15;95990.78;;;23.30;53.18
35878;BME280;21982;49.804;24.072;2023-08-06T02:05:41;95987.28;;;23.29;52.98
35878;BME280;21982;49.804;24.072;2023-08-06T02:08:06;95986.06;;;23.22;53.40
35878;BME280;21982;49.804;24.072;2023-08-06T02:10:32;95985.91;;;23.18;53.63
35878;BME280;21982;49.804;24.072;2023-08-06T02:12:58;96000.72;;;23.21;53.40
35878;BME280;21982;49.804;24.072;2023-08-06T02:15:23;95959.66;;;22.91;53.40
35878;BME280;21982;49.804;24.072;2023-08-06T02:17:51;95981.91;;;23.16;53.90
35878;BME280;21982;49.804;24.072;2023-08-06T02:20:16;95960.66;;;22.95;54.09
35878;BME280;21982;49.804;24.072;2023-08-06T02:22:42;95923.66;;;22.68;54.01
35878;BME280;21982;49.804;24.072;2023-08-06T02:25:07;95977.88;;;22.99;54.12
35878;BME280;21982;49.804;24.072;2023-08-06T02:27:33;95978.19;;;22.98;54.42
35878;BME280;21982;49.804;24.072;2023-08-06T02:29:58;95958.50;;;22.84;54.33
35878;BME280;21982;49.804;24.072;2023-08-06T02:32:24;95970.66;;;22.95;54.41
35878;BME280;21982;49.804;24.072;2023-08-06T02:34:49;95970.75;;;22.90;54.78
35878;BME280;21982;49.804;24.072;2023-08-06T02:37:15;95974.84;;;22.87;54.94
35878;BME280;21982;49.804;24.072;2023-08-06T02:39:41;95952.88;;;22.80;54.67
35878;BME280;21982;49.804;24.072;2023-08-06T02:42:07;95971.69;;;22.85;54.83
35878;BME280;21982;49.804;24.072;2023-08-06T02:44:34;95960.25;;;22.74;55.27
35878;BME280;21982;49.804;24.072;2023-08-06T02:47:00;95968.47;;;22.83;55.11
35878;BME280;21982;49.804;24.072;2023-08-06T02:49:25;95947.63;;;22.70;55.34
35878;BME280;21982;49.804;24.072;2023-08-06T02:51:51;95964.38;;;22.86;55.19
35878;BME280;21982;49.804;24.072;2023-08-06T02:54:17;95968.69;;;22.87;55.18
35878;BME280;21982;49.804;24.072;2023-08-06T02:56:43;95969.47;;;22.87;55.43
35878;BME280;21982;49.804;24.072;2023-08-06T02:59:10;95969.28;;;22.84;55.40
35878;BME280;21982;49.804;24.072;2023-08-06T03:01:35;95969.28;;;22.84;55.55
35878;BME280;21982;49.804;24.072;2023-08-06T03:04:01;95969.56;;;22.82;55.75
35878;BME280;21982;49.804;24.072;2023-08-06T03:06:27;95966.94;;;22.77;55.64
35878;BME280;21982;49.804;24.072;2023-08-06T03:08:52;95963.69;;;22.80;55.45
35878;BME280;21982;49.804;24.072;2023-08-06T03:11:18;95962.34;;;22.78;55.57
35878;BME280;21982;49.804;24.072;2023-08-06T03:13:43;95954.34;;;22.72;55.78
35878;BME280;21982;49.804;24.072;2023-08-06T03:16:08;95967.09;;;22.86;55.96
35878;BME280;21982;49.804;24.072;2023-08-06T03:18:34;95958.50;;;22.84;55.77
35878;BME280;21982;49.804;24.072;2023-08-06T03:20:59;95957.25;;;22.90;55.73
35878;BME280;21982;49.804;24.072;2023-08-06T03:23:24;95925.66;;;22.77;55.56
35878;BME280;21982;49.804;24.072;2023-08-06T03:25:52;95942.06;;;22.94;55.75
35878;BME280;21982;49.804;24.072;2023-08-06T03:28:17;95960.78;;;23.04;55.78
35878;BME280;21982;49.804;24.072;2023-08-06T03:30:43;95955.09;;;23.05;55.89
35878;BME280;21982;49.804;24.072;2023-08-06T03:33:08;95952.59;;;23.09;55.98
35878;BME280;21982;49.804;24.072;2023-08-06T03:35:34;95959.00;;;23.13;55.75
35878;BME280;21982;49.804;24.072;2023-08-06T03:38:00;95954.47;;;23.22;55.77
35878;BME280;21982;49.804;24.072;2023-08-06T03:40:26;95954.38;;;23.27;55.49
35878;BME280;21982;49.804;24.072;2023-08-06T03:42:51;95948.16;;;23.40;55.34
35878;BME280;21982;49.804;24.072;2023-08-06T03:45:17;95942.47;;;23.42;55.46
35878;BME280;21982;49.804;24.072;2023-08-06T03:47:43;95930.13;;;23.50;55.20
35878;BME280;21982;49.804;24.072;2023-08-06T03:50:09;95944.63;;;23.67;54.84
35878;BME280;21982;49.804;24.072;2023-08-06T03:52:35;95941.22;;;23.76;55.00
35878;BME280;21982;49.804;24.072;2023-08-06T03:55:00;95918.41;;;23.68;54.91
35878;BME280;21982;49.804;24.072;2023-08-06T03:57:25;95911.41;;;23.67;54.98
35878;BME280;21982;49.804;24.072;2023-08-06T03:59:54;95925.19;;;23.79;54.68
35878;BME280;21982;49.804;24.072;2023-08-06T04:02:19;95922.28;;;23.76;55.04
35878;BME280;21982;49.804;24.072;2023-08-06T04:04:44;95887.63;;;23.55;54.83
35878;BME280;21982;49.804;24.072;2023-08-06T04:07:10;95915.59;;;23.73;55.05
35878;BME280;21982;49.804;24.072;2023-08-06T04:09:53;95894.56;;;23.70;54.75
35878;BME280;21982;49.804;24.072;2023-08-06T04:12:18;95874.41;;;23.54;55.50
35878;BME280;21982;49.804;24.072;2023-08-06T04:14:44;95896.59;;;23.64;55.38
35878;BME280;21982;49.804;24.072;2023-08-06T04:17:09;95891.97;;;23.65;55.46
35878;BME280;21982;49.804;24.072;2023-08-06T04:19:34;95881.44;;;23.55;55.51
35878;BME280;21982;49.804;24.072;2023-08-06T04:22:00;95883.38;;;23.63;55.75
35878;BME280;21982;49.804;24.072;2023-08-06T04:24:25;95879.56;;;23.64;55.83
35878;BME280;21982;49.804;24.072;2023-08-06T04:26:51;95854.72;;;23.53;55.57
35878;BME280;21982;49.804;24.072;2023-08-06T04:29:16;95864.78;;;23.61;55.63
35878;BME280;21982;49.804;24.072;2023-08-06T04:31:41;95856.66;;;23.61;55.54
35878;BME280;21982;49.804;24.072;2023-08-06T04:34:07;95868.91;;;23.81;55.44
35878;BME280;21982;49.804;24.072;2023-08-06T04:36:34;95849.50;;;23.79;55.77
35878;BME280;21982;49.804;24.072;2023-08-06T04:38:59;95841.25;;;23.84;55.36
35878;BME280;21982;49.804;24.072;2023-08-06T04:41:25;95864.34;;;24.13;55.33
35878;BME280;21982;49.804;24.072;2023-08-06T04:43:50;95867.47;;;24.28;55.09
35878;BME280;21982;49.804;24.072;2023-08-06T04:46:15;95867.56;;;24.46;54.98
35878;BME280;21982;49.804;24.072;2023-08-06T04:48:41;95832.66;;;24.35;54.58
35878;BME280;21982;49.804;24.072;2023-08-06T04:51:06;95851.56;;;24.66;54.64
35878;BME280;21982;49.804;24.072;2023-08-06T04:53:31;95871.44;;;24.93;54.36
35878;BME280;21982;49.804;24.072;2023-08-06T04:55:57;95844.69;;;25.00;54.14
35878;BME280;21982;49.804;24.072;2023-08-06T04:58:22;95846.03;;;25.20;53.76
35878;BME280;21982;49.804;24.072;2023-08-06T05:00:48;95840.63;;;25.46;53.17
35878;BME280;21982;49.804;24.072;2023-08-06T05:03:13;95839.69;;;25.76;53.10
35878;BME280;21982;49.804;24.072;2023-08-06T05:05:40;95862.41;;;26.35;52.54
35878;BME280;21982;49.804;24.072;2023-08-06T05:08:06;95811.63;;;26.36;51.59
35878;BME280;21982;49.804;24.072;2023-08-06T05:10:31;95853.88;;;26.92;50.96
35878;BME280;21982;49.804;24.072;2023-08-06T05:12:57;95851.00;;;27.27;50.16
35878;BME280;21982;49.804;24.072;2023-08-06T05:15:22;95864.88;;;27.76;49.60
35878;BME280;21982;49.804;24.072;2023-08-06T05:17:50;95853.09;;;28.25;48.41
35878;BME280;21982;49.804;24.072;2023-08-06T05:20:15;95839.47;;;28.25;47.96
35878;BME280;21982;49.804;24.072;2023-08-06T05:22:42;95850.28;;;28.46;47.61
35878;BME280;21982;49.804;24.072;2023-08-06T05:25:07;95847.31;;;28.27;48.29
35878;BME280;21982;49.804;24.072;2023-08-06T05:27:33;95849.22;;;27.73;48.73
35878;BME280;21982;49.804;24.072;2023-08-06T05:29:59;95849.59;;;27.21;49.30
35878;BME280;21982;49.804;24.072;2023-08-06T05:32:24;95859.50;;;26.96;50.17
35878;BME280;21982;49.804;24.072;2023-08-06T05:34:50;95825.44;;;26.98;50.13
35878;BME280;21982;49.804;24.072;2023-08-06T05:37:15;95843.41;;;27.62;49.56
35878;BME280;21982;49.804;24.072;2023-08-06T05:39:40;95841.44;;;28.37;48.00
35878;BME280;21982;49.804;24.072;2023-08-06T05:42:06;95849.28;;;28.39;47.66
35878;BME280;21982;49.804;24.072;2023-08-06T05:44:31;95826.38;;;28.64;47.31
35878;BME280;21982;49.804;24.072;2023-08-06T05:46:57;95827.94;;;28.77;46.53
35878;BME280;21982;49.804;24.072;2023-08-06T05:49:22;95814.38;;;28.89;46.28
35878;BME280;21982;49.804;24.072;2023-08-06T05:51:47;95845.31;;;29.46;45.38
35878;BME280;21982;49.804;24.072;2023-08-06T05:54:13;95834.22;;;29.79;45.33
35878;BME280;21982;49.804;24.072;2023-08-06T05:56:39;95836.78;;;30.15;44.03
35878;BME280;21982;49.804;24.072;2023-08-06T05:59:04;95821.19;;;30.16;43.87
35878;BME280;21982;49.804;24.072;2023-08-06T06:01:29;95840.31;;;30.59;43.27
35878;BME280;21982;49.804;24.072;2023-08-06T06:03:55;95833.59;;;30.88;43.07
35878;BME280;21982;49.804;24.072;2023-08-06T06:06:20;95834.47;;;31.08;42.41
35878;BME280;21982;49.804;24.072;2023-08-06T06:08:46;95781.19;;;31.02;42.45
35878;BME280;21982;49.804;24.072;2023-08-06T06:11:11;95831.47;;;32.22;41.11
35878;BME280;21982;49.804;24.072;2023-08-06T06:13:36;95814.78;;;32.53;40.36
35878;BME280;21982;49.804;24.072;2023-08-06T06:16:02;95812.94;;;32.38;39.92
35878;BME280;21982;49.804;24.072;2023-08-06T06:18:28;95814.19;;;31.44;41.58
35878;BME280;21982;49.804;24.072;2023-08-06T06:20:53;95816.41;;;31.74;41.64
35878;BME280;21982;49.804;24.072;2023-08-06T06:23:18;95803.53;;;32.81;40.59
35878;BME280;21982;49.804;24.072;2023-08-06T06:25:48;95817.38;;;34.05;38.85
35878;BME280;21982;49.804;24.072;2023-08-06T06:28:14;95797.25;;;34.71;37.56
35878;BME280;21982;49.804;24.072;2023-08-06T06:30:42;95815.81;;;35.29;36.74
35878;BME280;21982;49.804;24.072;2023-08-06T06:33:07;95807.81;;;35.17;36.32
35878;BME280;21982;49.804;24.072;2023-08-06T06:35:33;95793.91;;;35.54;35.90
35878;BME280;21982;49.804;24.072;2023-08-06T06:37:58;95808.28;;;35.99;35.37
35878;BME280;21982;49.804;24.072;2023-08-06T06:40:25;95799.72;;;36.29;34.69
35878;BME280;21982;49.804;24.072;2023-08-06T06:42:50;95802.13;;;36.51;34.87
35878;BME280;21982;49.804;24.072;2023-08-06T06:45:15;95802.53;;;36.75;34.12
35878;BME280;21982;49.804;24.072;2023-08-06T06:47:41;95787.91;;;37.13;33.68
35878;BME280;21982;49.804;24.072;2023-08-06T06:50:06;95770.00;;;37.78;32.84
35878;BME280;21982;49.804;24.072;2023-08-06T06:52:32;95804.97;;;38.17;32.36
35878;BME280;21982;49.804;24.072;2023-08-06T06:54:58;95801.97;;;38.60;32.11
35878;BME280;21982;49.804;24.072;2023-08-06T06:57:23;95786.47;;;38.73;31.68
35878;BME280;21982;49.804;24.072;2023-08-06T06:59:48;95794.47;;;38.56;31.38
35878;BME280;21982;49.804;24.072;2023-08-06T07:02:14;95740.84;;;38.43;31.49
35878;BME280;21982;49.804;24.072;2023-08-06T07:04:39;95775.97;;;38.98;31.03
35878;BME280;21982;49.804;24.072;2023-08-06T07:07:05;95749.66;;;38.79;30.85
35878;BME280;21982;49.804;24.072;2023-08-06T07:09:30;95790.59;;;39.02;30.68
35878;BME280;21982;49.804;24.072;2023-08-06T07:11:55;95764.94;;;38.91;30.74
35878;BME280;21982;49.804;24.072;2023-08-06T07:14:21;95775.91;;;39.09;30.67
35878;BME280;21982;49.804;24.072;2023-08-06T07:16:46;95749.34;;;38.70;30.94
35878;BME280;21982;49.804;24.072;2023-08-06T07:19:14;95767.63;;;39.05;30.88
35878;BME280;21982;49.804;24.072;2023-08-06T07:21:39;95777.91;;;39.46;30.13
35878;BME280;21982;49.804;24.072;2023-08-06T07:24:05;95735.59;;;39.04;29.86
35878;BME280;21982;49.804;24.072;2023-08-06T07:26:30;95715.94;;;38.43;30.67
35878;BME280;21982;49.804;24.072;2023-08-06T07:28:55;95763.81;;;39.30;30.61
35878;BME280;21982;49.804;24.072;2023-08-06T07:31:21;95765.97;;;39.83;29.63
35878;BME280;21982;49.804;24.072;2023-08-06T07:36:22;95749.22;;;39.60;29.44
35878;BME280;21982;49.804;24.072;2023-08-06T07:38:47;95782.81;;;39.65;29.42
35878;BME280;21982;49.804;24.072;2023-08-06T07:41:16;95732.50;;;38.95;29.59
35878;BME280;21982;49.804;24.072;2023-08-06T07:43:42;95783.94;;;38.89;29.47
35878;BME280;21982;49.804;24.072;2023-08-06T07:46:07;95756.53;;;38.61;29.68
35878;BME280;21982;49.804;24.072;2023-08-06T07:48:33;95736.88;;;38.44;29.68
35878;BME280;21982;49.804;24.072;2023-08-06T07:50:59;95738.69;;;38.10;29.81
35878;BME280;21982;49.804;24.072;2023-08-06T07:53:25;95732.59;;;37.70;30.49
35878;BME280;21982;49.804;24.072;2023-08-06T07:55:55;95684.09;;;37.55;30.35
35878;BME280;21982;49.804;24.072;2023-08-06T07:58:21;95768.00;;;37.89;30.80
35878;BME280;21982;49.804;24.072;2023-08-06T08:00:47;95699.56;;;37.42;30.44
35878;BME280;21982;49.804;24.072;2023-08-06T08:03:15;95782.81;;;37.22;30.65
35878;BME280;21982;49.804;24.072;2023-08-06T08:05:42;95757.19;;;36.44;31.67
35878;BME280;21982;49.804;24.072;2023-08-06T08:08:08;95757.59;;;36.28;31.89
35878;BME280;21982;49.804;24.072;2023-08-06T08:10:33;95755.63;;;36.39;32.14
35878;BME280;21982;49.804;24.072;2023-08-06T08:13:00;95702.00;;;35.98;32.48
35878;BME280;21982;49.804;24.072;2023-08-06T08:15:27;95765.47;;;36.40;32.44
35878;BME280;21982;49.804;24.072;2023-08-06T08:17:53;95729.63;;;36.44;32.38
35878;BME280;21982;49.804;24.072;2023-08-06T08:20:18;95748.56;;;36.81;32.60
35878;BME280;21982;49.804;24.072;2023-08-06T08:22:44;95755.19;;;37.37;31.64
35878;BME280;21982;49.804;24.072;2023-08-06T08:25:09;95722.94;;;36.77;32.43
35878;BME280;21982;49.804;24.072;2023-08-06T08:27:36;95702.81;;;36.19;32.67
35878;BME280;21982;49.804;24.072;2023-08-06T08:30:01;95740.25;;;36.28;32.45
35878;BME280;21982;49.804;24.072;2023-08-06T08:32:27;95724.13;;;36.54;32.53
35878;BME280;21982;49.804;24.072;2023-08-06T08:34:52;95754.06;;;36.95;32.55
35878;BME280;21982;49.804;24.072;2023-08-06T08:37:19;95743.03;;;36.95;32.47
35878;BME280;21982;49.804;24.072;2023-08-06T08:39:44;95738.16;;;37.49;31.81
35878;BME280;21982;49.804;24.072;2023-08-06T08:42:10;95734.47;;;37.80;31.40
35878;BME280;21982;49.804;24.072;2023-08-06T08:44:36;95731.75;;;37.77;31.19
35878;BME280;21982;49.804;24.072;2023-08-06T08:47:07;95680.47;;;37.72;30.88
35878;BME280;21982;49.804;24.072;2023-08-06T08:49:35;95723.09;;;37.71;31.32
35878;BME280;21982;49.804;24.072;2023-08-06T08:52:01;95697.47;;;37.71;31.35
35878;BME280;21982;49.804;24.072;2023-08-06T08:54:28;95681.03;;;38.08;31.47
35878;BME280;21982;49.804;24.072;2023-08-06T08:56:56;95699.78;;;38.83;30.55
35878;BME280;21982;49.804;24.072;2023-08-06T08:59:22;95691.38;;;38.94;30.17
35878;BME280;21982;49.804;24.072;2023-08-06T09:01:48;95689.56;;;38.80;30.28
35878;BME280;21982;49.804;24.072;2023-08-06T09:09:31;95702.66;;;38.76;30.57
35878;BME280;21982;49.804;24.072;2023-08-06T09:12:00;95712.38;;;38.46;30.37
35878;BME280;21982;49.804;24.072;2023-08-06T09:14:27;95662.44;;;37.43;31.11
35878;BME280;21982;49.804;24.072;2023-08-06T09:16:53;95668.31;;;37.55;31.72
35878;BME280;21982;49.804;24.072;2023-08-06T09:19:18;95668.53;;;37.89;31.33
35878;BME280;21982;49.804;24.072;2023-08-06T09:21:45;95694.84;;;38.64;30.66
35878;BME280;21982;49.804;24.072;2023-08-06T09:24:14;95691.22;;;38.70;30.62
35878;BME280;21982;49.804;24.072;2023-08-06T09:26:41;95691.47;;;38.83;30.34
35878;BME280;21982;49.804;24.072;2023-08-06T09:29:08;95671.06;;;38.25;30.59
35878;BME280;21982;49.804;24.072;2023-08-06T09:34:02;95683.06;;;38.01;31.54
35878;BME280;21982;49.804;24.072;2023-08-06T09:39:12;95690.28;;;37.80;31.21
35878;BME280;21982;49.804;24.072;2023-08-06T09:41:39;95685.38;;;37.33;31.30
35878;BME280;21982;49.804;24.072;2023-08-06T09:44:17;95679.16;;;37.04;32.13
35878;BME280;21982;49.804;24.072;2023-08-06T09:46:49;95696.44;;;37.15;31.65
35878;BME280;21982;49.804;24.072;2023-08-06T09:49:16;95689.03;;;36.76;32.45
35878;BME280;21982;49.804;24.072;2023-08-06T09:51:42;95680.78;;;36.76;32.56
35878;BME280;21982;49.804;24.072;2023-08-06T09:54:13;95672.34;;;37.37;32.12
35878;BME280;21982;49.804;24.072;2023-08-06T09:59:15;95657.69;;;37.47;31.92
35878;BME280;21982;49.804;24.072;2023-08-06T10:06:52;95665.03;;;38.37;30.69
35878;BME280;21982;49.804;24.072;2023-08-06T10:09:17;95656.19;;;38.53;30.47
35878;BME280;21982;49.804;24.072;2023-08-06T10:11:51;95631.78;;;38.44;30.66
35878;BME280;21982;49.804;24.072;2023-08-06T10:14:28;95654.91;;;38.68;30.13
35878;BME280;21982;49.804;24.072;2023-08-06T10:16:57;95666.59;;;38.38;30.29
35878;BME280;21982;49.804;24.072;2023-08-06T10:19:23;95664.84;;;38.07;30.47
35878;BME280;21982;49.804;24.072;2023-08-06T10:25:00;95652.91;;;38.20;30.61
35878;BME280;21982;49.804;24.072;2023-08-06T10:27:33;95653.16;;;38.40;30.80
35878;BME280;21982;49.804;24.072;2023-08-06T10:30:24;95659.44;;;38.44;30.59
35878;BME280;21982;49.804;24.072;2023-08-06T10:32:53;95593.25;;;38.23;30.44
35878;BME280;21982;49.804;24.072;2023-08-06T10:40:32;95610.69;;;38.16;30.84
35878;BME280;21982;49.804;24.072;2023-08-06T10:43:02;95644.09;;;38.81;29.92
35878;BME280;21982;49.804;24.072;2023-08-06T10:45:28;95636.69;;;39.08;29.72
35878;BME280;21982;49.804;24.072;2023-08-06T10:47:55;95634.75;;;39.36;29.62
35878;BME280;21982;49.804;24.072;2023-08-06T10:50:23;95631.19;;;39.05;29.55
35878;BME280;21982;49.804;24.072;2023-08-06T10:52:48;95633.84;;;38.78;29.61
35878;BME280;21982;49.804;24.072;2023-08-06T10:55:22;95617.31;;;38.71;29.08
35878;BME280;21982;49.804;24.072;2023-08-06T10:57:48;95617.84;;;38.55;29.90
35878;BME280;21982;49.804;24.072;2023-08-06T11:00:14;95542.50;;;38.44;29.99
35878;BME280;21982;49.804;24.072;2023-08-06T11:02:39;95598.69;;;39.12;29.70
35878;BME280;21982;49.804;24.072;2023-08-06T11:05:08;95562.97;;;38.09;29.59
35878;BME280;21982;49.804;24.072;2023-08-06T11:07:37;95583.91;;;38.06;30.59
35878;BME280;21982;49.804;24.072;2023-08-06T11:12:29;95532.41;;;37.82;30.36
35878;BME280;21982;49.804;24.072;2023-08-06T11:14:54;95584.19;;;38.22;29.88
35878;BME280;21982;49.804;24.072;2023-08-06T11:17:21;95570.66;;;38.32;30.07
35878;BME280;21982;49.804;24.072;2023-08-06T11:19:46;95552.06;;;38.36;30.05
35878;BME280;21982;49.804;24.072;2023-08-06T11:22:12;95582.78;;;38.82;29.66
35878;BME280;21982;49.804;24.072;2023-08-06T11:24:38;95582.69;;;39.24;29.07
35878;BME280;21982;49.804;24.072;2023-08-06T11:27:11;95581.72;;;39.37;28.71
35878;BME280;21982;49.804;24.072;2023-08-06T11:29:38;95558.31;;;39.15;28.78
35878;BME280;21982;49.804;24.072;2023-08-06T11:32:04;95596.31;;;38.36;29.27
35878;BME280;21982;49.804;24.072;2023-08-06T11:34:30;95566.31;;;37.23;30.42
35878;BME280;21982;49.804;24.072;2023-08-06T11:36:57;95564.97;;;36.58;31.02
35878;BME280;21982;49.804;24.072;2023-08-06T11:39:22;95568.16;;;36.39;31.48
35878;BME280;21982;49.804;24.072;2023-08-06T11:41:48;95611.47;;;36.56;31.08
35878;BME280;21982;49.804;24.072;2023-08-06T11:44:14;95452.38;;;34.72;31.87
35878;BME280;21982;49.804;24.072;2023-08-06T11:46:53;95561.56;;;34.65;33.36
35878;BME280;21982;49.804;24.072;2023-08-06T11:49:21;95610.38;;;34.85;33.27
35878;BME280;21982;49.804;24.072;2023-08-06T11:51:49;95584.75;;;34.12;34.08
35878;BME280;21982;49.804;24.072;2023-08-06T11:54:14;95554.97;;;33.29;35.01
35878;BME280;21982;49.804;24.072;2023-08-06T11:56:40;95610.75;;;33.07;35.99
35878;BME280;21982;49.804;24.072;2023-08-06T11:59:05;95610.50;;;32.59;36.25
35878;BME280;21982;49.804;24.072;2023-08-06T12:01:31;95605.72;;;32.26;36.97
35878;BME280;21982;49.804;24.072;2023-08-06T12:04:00;95546.66;;;31.76;37.52
35878;BME280;21982;49.804;24.072;2023-08-06T12:06:28;95597.94;;;31.79;38.08
35878;BME280;21982;49.804;24.072;2023-08-06T12:08:54;95538.75;;;31.06;39.00
35878;BME280;21982;49.804;24.072;2023-08-06T12:11:21;95569.13;;;31.01;38.92
35878;BME280;21982;49.804;24.072;2023-08-06T12:13:51;95623.34;;;30.99;39.94
35878;BME280;21982;49.804;24.072;2023-08-06T12:16:17;95612.34;;;30.06;41.69
35878;BME280;21982;49.804;24.072;2023-08-06T12:18:44;95587.94;;;29.22;43.15
35878;BME280;21982;49.804;24.072;2023-08-06T12:21:10;95627.00;;;28.98;44.13
35878;BME280;21982;49.804;24.072;2023-08-06T12:23:35;95646.94;;;28.75;45.04
35878;BME280;21982;49.804;24.072;2023-08-06T12:26:02;95651.97;;;28.48;45.41
35878;BME280;21982;49.804;24.072;2023-08-06T12:28:27;95674.31;;;28.42;45.80
35878;BME280;21982;49.804;24.072;2023-08-06T12:30:52;95650.63;;;28.06;45.61
35878;BME280;21982;49.804;24.072;2023-08-06T12:36:01;95679.19;;;27.99;45.84
35878;BME280;21982;49.804;24.072;2023-08-06T12:38:27;95516.69;;;26.82;46.51
35878;BME280;21982;49.804;24.072;2023-08-06T12:40:52;95622.63;;;27.35;46.73
35878;BME280;21982;49.804;24.072;2023-08-06T12:43:17;95669.63;;;27.69;46.57
35878;BME280;21982;49.804;24.072;2023-08-06T12:45:45;95652.66;;;27.51;46.29
35878;BME280;21982;49.804;24.072;2023-08-06T12:48:11;95606.09;;;27.08;47.55
35878;BME280;21982;49.804;24.072;2023-08-06T12:50:37;95608.06;;;27.19;48.00
35878;BME280;21982;49.804;24.072;2023-08-06T12:53:02;95613.41;;;27.28;47.67
35878;BME280;21982;49.804;24.072;2023-08-06T12:55:31;95641.72;;;27.27;48.44
35878;BME280;21982;49.804;24.072;2023-08-06T12:57:56;95650.63;;;27.15;48.79
35878;BME280;21982;49.804;24.072;2023-08-06T13:00:21;95634.50;;;26.98;48.92
35878;BME280;21982;49.804;24.072;2023-08-06T13:02:47;95636.59;;;26.92;49.07
35878;BME280;21982;49.804;24.072;2023-08-06T13:05:12;95583.81;;;26.60;48.65
35878;BME280;21982;49.804;24.072;2023-08-06T13:07:39;95617.91;;;26.91;48.77
35878;BME280;21982;49.804;24.072;2023-08-06T13:10:05;95601.53;;;26.79;49.50
35878;BME280;21982;49.804;24.072;2023-08-06T13:12:33;95618.31;;;26.81;49.72
35878;BME280;21982;49.804;24.072;2023-08-06T13:14:58;95629.28;;;26.84;49.64
35878;BME280;21982;49.804;24.072;2023-08-06T13:17:24;95565.59;;;26.40;50.22
35878;BME280;21982;49.804;24.072;2023-08-06T13:19:50;95594.41;;;26.53;50.60
35878;BME280;21982;49.804;24.072;2023-08-06T13:22:15;95594.34;;;26.41;50.87
35878;BME280;21982;49.804;24.072;2023-08-06T13:24:40;95551.28;;;26.10;51.67